createdAt,value
2023-01-04T00:00:41.856Z,8.31
2023-01-04T00:04:58.260Z,7.43
2023-01-04T00:09:14.551Z,8.07
2023-01-04T00:13:34.819Z,8.40
2023-01-04T00:17:51.103Z,8.45
2023-01-04T00:22:07.419Z,8.21
2023-01-04T00:26:33.143Z,8.08
2023-01-04T00:30:49.382Z,8.00
2023-01-04T00:35:32.821Z,8.12
2023-01-04T00:39:49.266Z,8.03
2023-01-04T00:44:07.341Z,7.83
2023-01-04T00:48:23.507Z,8.11
2023-01-04T00:52:39.800Z,8.28
2023-01-04T00:56:56.053Z,7.84
2023-01-04T01:01:12.618Z,7.68
2023-01-04T01:05:29.145Z,8.23
2023-01-04T01:09:45.415Z,8.20
2023-01-04T01:14:01.613Z,8.35
2023-01-04T01:18:17.899Z,7.96
2023-01-04T01:22:36.499Z,8.07
2023-01-04T01:26:52.799Z,7.94
2023-01-04T01:31:23.262Z,8.18
2023-01-04T01:35:46.930Z,7.67
2023-01-04T01:40:03.190Z,7.79
2023-01-04T01:44:47.039Z,7.74
2023-01-04T01:49:28.436Z,7.87
2023-01-04T01:53:46.970Z,7.82
2023-01-04T01:58:05.544Z,7.67
2023-01-04T02:02:22.404Z,7.79
2023-01-04T02:06:41.712Z,7.90
2023-01-04T02:10:58.122Z,7.76
2023-01-04T02:15:14.439Z,7.86
2023-01-04T02:20:04.752Z,7.65
2023-01-04T02:24:42.543Z,7.23
2023-01-04T02:29:29.306Z,7.14
2023-01-04T02:33:54.342Z,6.80
2023-01-04T02:38:23.368Z,6.95
2023-01-04T02:43:33.357Z,6.94
2023-01-04T02:48:07.960Z,7.09
2023-01-04T02:52:24.420Z,6.94
2023-01-04T02:57:13.101Z,6.71
2023-01-04T03:02:09.702Z,6.43
2023-01-04T03:06:59.126Z,6.46
2023-01-04T07:25:52.648Z,5.23
2023-01-04T07:30:09.441Z,4.31
2023-01-04T07:34:26.589Z,4.62
2023-01-04T07:38:43.808Z,4.85
2023-01-04T07:43:00.294Z,4.91
2023-01-04T07:47:16.457Z,5.14
2023-01-04T07:51:33.532Z,5.10
2023-01-04T07:55:54.686Z,5.02
2023-01-04T08:00:11.728Z,5.03
2023-01-04T08:04:34.391Z,4.83
2023-01-04T08:08:51.385Z,4.93
2023-01-04T08:13:07.635Z,4.99
2023-01-04T08:17:23.844Z,4.73
2023-01-04T08:21:40.108Z,5.05
2023-01-04T08:25:56.311Z,4.68
2023-01-04T08:30:12.644Z,4.73
2023-01-04T08:34:30.060Z,5.03
2023-01-04T08:39:05.740Z,5.16
2023-01-04T08:43:22.334Z,5.05
2023-01-04T08:47:38.645Z,4.80
2023-01-04T08:51:54.946Z,4.88
2023-01-04T08:56:11.484Z,5.17
2023-01-04T09:00:27.920Z,5.20
2023-01-04T09:04:44.736Z,5.27
2023-01-04T09:09:00.901Z,5.19
2023-01-04T09:13:17.048Z,5.24
2023-01-04T09:17:33.187Z,5.35
2023-01-04T09:21:49.623Z,5.55
2023-01-04T09:26:09.635Z,5.70
2023-01-04T09:30:26.624Z,5.63
2023-01-04T09:34:43.041Z,5.60
2023-01-04T09:39:01.268Z,5.61
2023-01-04T09:43:22.304Z,5.86
2023-01-04T09:47:46.912Z,6.03
2023-01-04T09:52:38.473Z,6.15
2023-01-04T09:56:58.514Z,6.26
2023-01-04T10:01:17.291Z,6.11
2023-01-04T10:05:34.580Z,6.59
2023-01-04T10:09:50.906Z,6.28
2023-01-04T10:14:23.002Z,6.44
2023-01-04T10:19:51.516Z,6.43
2023-01-04T10:23:59.343Z,6.45
2023-01-04T10:28:43.509Z,6.71
2023-01-04T10:33:11.876Z,6.70
2023-01-04T10:37:37.542Z,6.97
2023-01-04T10:42:00.854Z,7.00
2023-01-04T10:46:27.230Z,7.17
2023-01-04T10:50:56.767Z,7.09
2023-01-04T10:55:38.555Z,6.37
2023-01-04T11:00:17.912Z,6.51
2023-01-04T11:04:45.178Z,6.64
2023-01-04T11:09:13.455Z,7.10
2023-01-04T11:13:29.760Z,7.23
2023-01-04T11:17:46.302Z,6.86
2023-01-04T11:22:11.047Z,7.41
2023-01-04T11:26:35.191Z,7.85
2023-01-04T11:31:14.076Z,8.02
2023-01-04T11:35:43.389Z,8.09
2023-01-04T11:40:24.189Z,8.35
2023-01-04T11:44:42.210Z,7.87
2023-01-04T11:48:58.785Z,8.37
2023-01-04T11:53:41.237Z,8.44
2023-01-04T11:58:15.007Z,8.57
2023-01-04T12:07:20.313Z,8.06
2023-01-04T12:11:40.295Z,8.45
2023-01-04T12:16:18.470Z,8.77
2023-01-04T12:20:36.233Z,8.70
2023-01-04T12:25:00.022Z,8.50
2023-01-04T12:29:23.249Z,8.60
2023-01-04T12:33:40.397Z,8.57
2023-01-04T12:37:56.606Z,8.53
2023-01-04T12:42:17.833Z,8.23
2023-01-04T12:47:01.049Z,8.54
2023-01-04T12:51:33.936Z,8.73
2023-01-04T12:55:55.178Z,8.14
2023-01-04T13:00:15.249Z,8.30
2023-01-04T13:04:41.640Z,8.18
2023-01-04T13:08:58.158Z,8.44
2023-01-04T13:13:42.170Z,8.35
2023-01-04T13:17:58.402Z,8.11
2023-01-04T13:22:29.475Z,8.06
2023-01-04T13:26:48.788Z,8.00
2023-01-04T13:31:05.055Z,8.02
2023-01-04T13:35:21.308Z,7.68
2023-01-04T13:39:45.184Z,7.88
2023-01-04T13:44:17.461Z,8.59
2023-01-04T13:48:37.611Z,12.45
2023-01-04T13:53:05.524Z,17.65
2023-01-04T13:57:22.784Z,20.61
2023-01-04T14:01:47.186Z,22.66
2023-01-04T14:06:15.076Z,21.85
2023-01-04T14:10:31.560Z,23.03
2023-01-04T14:14:58.905Z,23.43
2023-01-04T14:19:41.679Z,21.26
2023-01-04T14:23:57.964Z,20.13
2023-01-04T14:28:24.862Z,17.31
2023-01-04T14:32:43.290Z,16.18
2023-01-04T14:37:04.634Z,14.82
2023-01-04T14:41:25.681Z,14.67
2023-01-04T14:45:41.854Z,14.35
2023-01-04T14:49:58.055Z,13.56
2023-01-04T14:54:20.469Z,13.08
2023-01-04T14:58:40.777Z,12.58
2023-01-04T15:02:57.292Z,11.98
2023-01-04T15:07:36.068Z,11.80
2023-01-04T15:11:52.458Z,11.31
2023-01-04T15:16:13.173Z,10.82
2023-01-04T15:20:29.427Z,10.34
2023-01-04T15:24:45.844Z,10.32
2023-01-04T15:29:02.500Z,10.02
2023-01-04T15:33:18.699Z,9.85
2023-01-04T15:37:34.962Z,9.44
2023-01-04T15:42:09.752Z,9.06
2023-01-04T15:46:26.063Z,8.86
2023-01-04T15:50:42.573Z,8.60
2023-01-04T15:54:58.763Z,8.62
2023-01-04T15:59:14.891Z,8.53
2023-01-04T16:03:31.143Z,8.04
2023-01-04T16:07:48.644Z,8.21
2023-01-04T16:12:26.660Z,8.30
2023-01-04T16:16:42.858Z,8.38
2023-01-04T16:21:02.008Z,8.07
2023-01-04T16:25:18.368Z,8.04
2023-01-04T16:29:34.944Z,8.14
2023-01-04T16:33:54.634Z,7.62
2023-01-04T16:38:10.745Z,7.68
2023-01-04T16:42:27.072Z,7.42
2023-01-04T16:46:44.408Z,7.46
2023-01-04T16:51:01.759Z,7.72
2023-01-04T16:55:23.849Z,7.59
2023-01-04T16:59:40.398Z,7.79
2023-01-04T17:03:58.894Z,7.79
2023-01-04T17:08:15.660Z,8.04
2023-01-04T17:12:48.799Z,8.16
2023-01-04T17:17:05.306Z,7.53
2023-01-04T17:21:33.750Z,8.03
2023-01-04T17:25:51.055Z,8.30
2023-01-04T17:30:10.038Z,8.50
2023-01-04T17:34:26.520Z,8.69
2023-01-04T17:38:42.824Z,8.67
2023-01-04T17:42:59.967Z,8.85
2023-01-04T17:47:16.200Z,9.09
2023-01-04T17:51:33.156Z,9.16
2023-01-04T17:55:49.381Z,9.37
2023-01-04T18:00:06.909Z,9.66
2023-01-04T18:04:23.192Z,9.40
2023-01-04T18:08:39.749Z,9.31
2023-01-04T18:12:56.111Z,9.35
2023-01-04T18:17:12.654Z,9.30
2023-01-04T18:21:31.256Z,9.64
2023-01-04T18:25:47.627Z,9.78
2023-01-04T18:30:04.120Z,9.77
2023-01-04T18:34:20.714Z,9.73
2023-01-04T18:38:36.960Z,9.65
2023-01-04T18:42:53.147Z,9.50
2023-01-04T18:47:09.266Z,9.61
2023-01-04T18:51:27.118Z,9.84
2023-01-04T18:55:43.325Z,9.63
2023-01-04T19:00:00.230Z,9.66
2023-01-04T19:04:17.742Z,9.86
2023-01-04T19:08:34.249Z,9.92
2023-01-04T19:12:50.513Z,9.75
2023-01-04T19:17:06.827Z,9.95
2023-01-04T19:21:23.126Z,9.36
2023-01-04T19:25:40.366Z,9.69
2023-01-04T19:29:56.534Z,10.03
2023-01-04T19:34:12.699Z,10.34
2023-01-04T19:38:28.868Z,10.25
2023-01-04T19:42:45.021Z,10.47
2023-01-04T19:47:01.219Z,10.45
2023-01-04T19:51:18.084Z,10.64
2023-01-04T19:55:34.513Z,10.60
2023-01-04T19:59:51.172Z,10.58
2023-01-04T20:04:07.331Z,10.49
2023-01-04T20:08:23.609Z,10.56
2023-01-04T20:12:39.839Z,10.43
2023-01-04T20:16:56.088Z,10.61
2023-01-04T20:21:14.252Z,10.47
2023-01-04T20:25:30.474Z,10.70
2023-01-04T20:29:46.740Z,10.70
2023-01-04T20:34:02.961Z,10.75
2023-01-04T20:38:19.204Z,10.81
2023-01-04T20:42:54.117Z,10.71
2023-01-04T20:47:10.363Z,10.76
2023-01-04T20:51:28.290Z,9.93
2023-01-04T20:55:44.548Z,10.17
2023-01-04T21:00:00.772Z,10.26
2023-01-04T21:04:17.950Z,10.60
2023-01-04T21:08:35.799Z,10.45
2023-01-04T21:12:51.950Z,10.41
2023-01-04T21:17:08.106Z,10.47
2023-01-04T21:21:24.323Z,10.51
2023-01-04T21:25:41.420Z,9.73
2023-01-04T21:29:57.681Z,10.59
2023-01-04T21:34:18.259Z,10.82
2023-01-04T21:38:37.125Z,10.77
2023-01-04T21:42:53.470Z,10.75
2023-01-04T21:47:09.629Z,10.26
2023-01-04T21:51:25.999Z,10.66
2023-01-04T21:55:42.200Z,10.61
2023-01-04T21:59:58.405Z,10.45
2023-01-04T22:04:14.619Z,10.80
2023-01-04T22:08:31.148Z,10.78
2023-01-04T22:12:49.941Z,10.86
2023-01-04T22:17:06.140Z,10.63
2023-01-04T22:21:26.727Z,10.43
2023-01-04T22:25:42.976Z,10.46
2023-01-04T22:29:59.134Z,10.32
2023-01-04T22:34:17.140Z,10.22
2023-01-04T22:38:38.343Z,10.17
2023-01-04T22:42:54.553Z,9.38
2023-01-04T22:47:10.825Z,9.92
2023-01-04T22:51:27.784Z,9.78
2023-01-04T22:56:17.487Z,9.80
2023-01-04T23:00:20.355Z,9.94
2023-01-04T23:04:36.509Z,9.95
2023-01-04T23:09:01.215Z,9.98
2023-01-04T23:13:17.466Z,10.12
2023-01-04T23:17:33.701Z,10.21
2023-01-04T23:21:49.896Z,10.06
2023-01-04T23:26:07.860Z,9.57
2023-01-04T23:30:24.062Z,9.86
2023-01-04T23:34:40.232Z,9.71
2023-01-04T23:38:59.122Z,9.71
2023-01-04T23:43:15.328Z,9.76
2023-01-04T23:47:31.452Z,9.78
2023-01-04T23:51:47.695Z,9.97
2023-01-04T23:56:13.511Z,10.00
